createdAt,value
2019-03-04T00:02:25.598Z,99.90
2019-03-04T00:04:53.100Z,99.90
2019-03-04T00:07:20.599Z,99.90
2019-03-04T00:09:48.095Z,99.90
2019-03-04T00:12:15.553Z,99.90
2019-03-04T00:14:43.091Z,99.90
2019-03-04T00:17:10.542Z,99.90
2019-03-04T00:19:38.038Z,99.90
2019-03-04T00:22:05.705Z,99.90
2019-03-04T00:24:33.161Z,99.90
2019-03-04T00:27:00.604Z,99.90
2019-03-04T00:29:28.113Z,99.90
2019-03-04T00:31:55.571Z,99.90
2019-03-04T00:34:23.088Z,99.90
2019-03-04T00:36:50.610Z,99.90
2019-03-04T00:39:18.061Z,99.90
2019-03-04T00:41:45.536Z,99.90
2019-03-04T00:44:13.021Z,99.90
2019-03-04T00:46:40.478Z,99.90
2019-03-04T00:49:07.984Z,99.90
2019-03-04T00:51:35.466Z,99.90
2019-03-04T00:54:02.920Z,99.90
2019-03-04T00:56:30.390Z,99.90
2019-03-04T00:58:57.879Z,99.90
2019-03-04T01:01:25.390Z,99.90
2019-03-04T01:03:52.861Z,99.90
2019-03-04T01:06:20.360Z,99.90
2019-03-04T01:08:47.883Z,99.90
2019-03-04T01:11:15.359Z,99.90
2019-03-04T01:13:42.853Z,99.90
2019-03-04T01:16:10.327Z,99.90
2019-03-04T01:18:37.824Z,99.90
2019-03-04T01:21:05.315Z,99.90
2019-03-04T01:23:32.743Z,99.90
2019-03-04T01:26:00.250Z,99.90
2019-03-04T01:28:27.742Z,99.90
2019-03-04T01:30:55.198Z,99.90
2019-03-04T01:33:22.695Z,99.90
2019-03-04T01:35:50.146Z,99.90
2019-03-04T01:38:17.658Z,99.90
2019-03-04T01:40:45.127Z,99.90
2019-03-04T01:43:12.592Z,99.90
2019-03-04T01:45:40.084Z,99.90
2019-03-04T01:48:07.533Z,99.90
2019-03-04T01:50:35.010Z,99.90
2019-03-04T01:53:02.469Z,99.90
2019-03-04T01:55:29.966Z,99.90
2019-03-04T01:57:57.450Z,99.90
2019-03-04T02:00:24.888Z,99.90
2019-03-04T02:02:52.777Z,99.90
2019-03-04T02:05:20.331Z,99.90
2019-03-04T02:07:47.773Z,99.90
2019-03-04T02:10:16.650Z,99.90
2019-03-04T02:12:44.138Z,99.90
2019-03-04T02:15:13.422Z,99.90
2019-03-04T02:17:40.907Z,99.90
2019-03-04T02:20:09.557Z,99.90
2019-03-04T02:22:37.073Z,99.90
2019-03-04T02:25:05.686Z,99.90
2019-03-04T02:27:33.144Z,99.90
2019-03-04T02:30:00.756Z,99.90
2019-03-04T02:32:28.231Z,99.90
2019-03-04T02:34:55.734Z,99.90
2019-03-04T02:37:23.211Z,99.90
2019-03-04T02:39:50.745Z,99.90
2019-03-04T02:42:18.225Z,99.90
2019-03-04T02:44:46.407Z,99.90
2019-03-04T02:47:13.852Z,99.90
2019-03-04T02:49:41.360Z,99.90
2019-03-04T02:52:08.870Z,99.90
2019-03-04T02:54:36.323Z,99.90
2019-03-04T02:57:03.837Z,99.90
2019-03-04T02:59:31.293Z,99.90
2019-03-04T03:01:58.729Z,99.90
2019-03-04T03:04:26.546Z,99.90
2019-03-04T03:06:54.074Z,99.90
2019-03-04T03:09:21.529Z,99.90
2019-03-04T03:11:49.006Z,99.90
2019-03-04T03:14:16.491Z,99.90
2019-03-04T03:16:43.984Z,99.90
2019-03-04T03:19:11.427Z,99.90
2019-03-04T03:21:38.891Z,99.90
2019-03-04T03:24:06.391Z,99.90
2019-03-04T03:26:33.877Z,99.90
2019-03-04T03:29:01.353Z,99.90
2019-03-04T03:31:28.845Z,99.90
2019-03-04T03:33:56.353Z,99.90
2019-03-04T03:36:23.846Z,99.90
2019-03-04T03:38:51.332Z,99.90
2019-03-04T03:41:18.777Z,99.90
2019-03-04T03:43:46.264Z,99.90
2019-03-04T03:46:13.776Z,99.90
2019-03-04T03:48:41.250Z,99.90
2019-03-04T03:51:08.730Z,99.90
2019-03-04T03:53:36.200Z,99.90
2019-03-04T03:56:03.756Z,99.90
2019-03-04T03:58:31.223Z,99.90
2019-03-04T04:00:58.693Z,99.90
2019-03-04T04:03:26.152Z,99.90
2019-03-04T04:05:53.659Z,99.90
2019-03-04T04:08:21.168Z,99.90
2019-03-04T04:10:48.617Z,99.90
2019-03-04T04:13:16.080Z,99.90
2019-03-04T04:15:43.682Z,99.90
2019-03-04T04:18:11.158Z,99.90
2019-03-04T04:20:38.618Z,99.90
2019-03-04T04:23:06.127Z,99.90
2019-03-04T04:25:33.614Z,99.90
2019-03-04T04:28:02.261Z,99.90
2019-03-04T04:30:30.444Z,99.90
2019-03-04T04:32:57.955Z,99.90
2019-03-04T04:35:25.417Z,99.90
2019-03-04T04:37:52.939Z,99.90
2019-03-04T04:40:20.380Z,99.90
2019-03-04T04:42:47.834Z,99.90
2019-03-04T04:45:15.309Z,99.90
2019-03-04T04:47:42.770Z,99.90
2019-03-04T04:50:11.345Z,99.90
2019-03-04T04:52:38.888Z,99.90
2019-03-04T04:55:06.362Z,99.90
2019-03-04T04:57:33.857Z,99.90
2019-03-04T05:00:01.375Z,99.90
2019-03-04T05:02:29.058Z,99.90
2019-03-04T05:04:56.522Z,99.90
2019-03-04T05:07:24.123Z,99.90
2019-03-04T05:09:51.622Z,99.90
2019-03-04T05:12:19.076Z,99.90
2019-03-04T05:14:46.560Z,99.90
2019-03-04T05:17:14.046Z,99.90
2019-03-04T05:19:41.557Z,99.90
2019-03-04T05:22:09.003Z,99.90
2019-03-04T05:24:36.466Z,99.90
2019-03-04T05:27:03.958Z,99.90
2019-03-04T05:29:31.436Z,99.90
2019-03-04T05:31:58.972Z,99.90
2019-03-04T05:34:26.441Z,99.90
2019-03-04T05:36:53.921Z,99.90
2019-03-04T05:39:21.375Z,99.90
2019-03-04T05:41:48.863Z,99.90
2019-03-04T05:44:16.226Z,99.90
2019-03-04T05:46:43.711Z,99.90
2019-03-04T05:49:11.173Z,99.90
2019-03-04T05:51:38.653Z,99.90
2019-03-04T05:54:06.159Z,99.90
2019-03-04T05:56:33.737Z,99.90
2019-03-04T05:59:01.176Z,99.90
2019-03-04T06:01:33.272Z,99.90
2019-03-04T06:04:11.276Z,99.90
2019-03-04T06:07:01.540Z,99.90
2019-03-04T06:09:29.012Z,99.90
2019-03-04T06:11:56.455Z,99.90
2019-03-04T06:14:24.649Z,99.90
2019-03-04T06:16:52.105Z,99.90
2019-03-04T06:19:19.586Z,99.90
2019-03-04T06:21:47.083Z,99.90
2019-03-04T06:24:14.589Z,99.90
2019-03-04T06:26:42.074Z,99.90
2019-03-04T06:29:09.535Z,99.90
2019-03-04T06:31:37.039Z,99.90
2019-03-04T06:34:04.489Z,99.90
2019-03-04T06:36:31.984Z,99.90
2019-03-04T06:38:59.509Z,99.90
2019-03-04T06:41:26.986Z,99.90
2019-03-04T06:43:54.474Z,99.90
2019-03-04T06:46:21.942Z,99.90
2019-03-04T06:48:49.611Z,99.90
2019-03-04T06:51:25.762Z,99.90
2019-03-04T06:54:44.859Z,99.90
2019-03-04T06:57:15.332Z,99.90
2019-03-04T07:00:22.875Z,99.90
2019-03-04T07:02:50.409Z,99.90
2019-03-04T07:05:45.332Z,99.90
2019-03-04T07:09:00.476Z,99.90
2019-03-04T07:11:29.027Z,99.90
2019-03-04T07:13:56.561Z,99.90
2019-03-04T07:16:24.075Z,99.90
2019-03-04T07:18:51.537Z,99.90
2019-03-04T07:21:19.106Z,99.90
2019-03-04T07:23:46.550Z,99.90
2019-03-04T07:26:14.013Z,96.70
2019-03-04T07:28:41.558Z,95.90
2019-03-04T07:31:08.990Z,89.90
2019-03-04T07:33:36.443Z,89.00
2019-03-04T07:36:03.969Z,86.60
2019-03-04T07:38:42.718Z,83.00
2019-03-04T07:41:10.582Z,85.00
2019-03-04T07:43:38.057Z,87.10
2019-03-04T07:46:05.500Z,87.90
2019-03-04T07:48:32.998Z,89.10
2019-03-04T07:51:09.726Z,89.70
2019-03-04T07:53:46.001Z,91.40
2019-03-04T07:56:06.733Z,91.40
2019-03-04T07:58:34.212Z,92.50
2019-03-04T08:01:01.705Z,93.40
2019-03-04T08:03:29.188Z,92.90
2019-03-04T08:05:57.778Z,91.60
2019-03-04T08:08:25.681Z,89.10
2019-03-04T08:11:32.646Z,86.10
2019-03-04T08:14:01.099Z,86.60
2019-03-04T08:16:28.601Z,73.50
2019-03-04T08:18:56.206Z,67.00
2019-03-04T08:21:23.697Z,61.20
2019-03-04T08:23:51.201Z,60.20
2019-03-04T08:26:18.725Z,58.80
2019-03-04T08:28:46.193Z,60.20
2019-03-04T08:31:14.112Z,61.10
2019-03-04T08:33:41.581Z,60.30
2019-03-04T08:36:09.082Z,58.90
2019-03-04T08:38:36.631Z,58.60
2019-03-04T08:41:04.112Z,58.00
2019-03-04T08:43:31.631Z,57.40
2019-03-04T08:45:59.109Z,56.00
2019-03-04T08:48:26.586Z,52.40
2019-03-04T08:50:54.198Z,52.20
2019-03-04T08:53:21.654Z,49.60
2019-03-04T08:55:49.394Z,47.70
2019-03-04T08:58:16.888Z,43.60
2019-03-04T09:00:44.378Z,46.50
2019-03-04T09:03:11.919Z,46.40
2019-03-04T09:05:39.397Z,47.50
2019-03-04T09:08:06.860Z,49.80
2019-03-04T09:10:34.422Z,51.50
2019-03-04T09:13:01.876Z,51.50
2019-03-04T09:15:29.347Z,52.80
2019-03-04T09:17:56.852Z,51.00
2019-03-04T09:20:24.835Z,52.70
2019-03-04T09:22:52.863Z,53.90
2019-03-04T09:25:30.030Z,57.80
2019-03-04T09:27:52.747Z,65.10
2019-03-04T09:30:20.303Z,66.30
2019-03-04T09:32:47.883Z,67.10
2019-03-04T09:35:15.375Z,66.90
2019-03-04T09:37:42.871Z,64.90
2019-03-04T09:40:12.413Z,64.10
2019-03-04T09:42:40.226Z,65.60
2019-03-04T09:45:07.932Z,62.10
2019-03-04T09:47:35.713Z,62.10
2019-03-04T09:50:04.906Z,60.50
2019-03-04T09:52:32.401Z,61.90
2019-03-04T09:54:59.945Z,62.80
2019-03-04T09:57:27.427Z,62.00
2019-03-04T09:59:54.905Z,60.70
2019-03-04T10:02:29.735Z,64.20
2019-03-04T10:05:28.822Z,63.10
2019-03-04T10:08:09.951Z,63.90
2019-03-04T10:11:20.478Z,64.50
2019-03-04T10:14:38.597Z,69.00
2019-03-04T10:17:53.553Z,66.10
2019-03-04T10:20:55.382Z,67.80
2019-03-04T10:23:54.338Z,69.00
2019-03-04T10:27:08.259Z,72.10
2019-03-04T10:30:06.593Z,72.40
2019-03-04T10:33:03.573Z,74.20
2019-03-04T10:36:04.861Z,76.60
2019-03-04T10:39:04.090Z,76.90
2019-03-04T10:42:22.324Z,78.40
2019-03-04T10:45:33.693Z,81.30
2019-03-04T10:48:01.198Z,79.10
2019-03-04T10:50:28.683Z,78.70
2019-03-04T10:52:56.187Z,80.00
2019-03-04T10:55:23.670Z,79.10
2019-03-04T10:57:51.166Z,83.80
2019-03-04T11:00:18.756Z,82.80
2019-03-04T11:02:46.499Z,81.40
2019-03-04T11:05:14.072Z,84.30
2019-03-04T11:07:41.531Z,84.20
2019-03-04T11:10:09.157Z,88.80
2019-03-04T11:12:36.643Z,90.10
2019-03-04T11:15:05.811Z,92.80
2019-03-04T11:17:33.318Z,93.70
2019-03-04T11:20:00.790Z,93.20
2019-03-04T11:22:28.270Z,94.60
2019-03-04T11:24:55.778Z,96.60
2019-03-04T11:27:24.000Z,98.60
2019-03-04T11:29:51.486Z,98.90
2019-03-04T11:32:18.986Z,99.80
2019-03-04T11:34:46.455Z,99.90
2019-03-04T11:37:13.948Z,99.50
2019-03-04T11:40:00.034Z,99.90
2019-03-04T11:42:27.553Z,99.90
2019-03-04T11:44:55.012Z,99.90
2019-03-04T11:47:25.370Z,99.90
2019-03-04T11:49:53.529Z,99.90
2019-03-04T11:52:21.122Z,99.90
2019-03-04T11:54:48.690Z,99.70
2019-03-04T11:57:16.379Z,99.90
2019-03-04T11:59:43.834Z,99.40
2019-03-04T12:02:19.030Z,99.40
2019-03-04T12:04:46.551Z,99.20
2019-03-04T12:07:14.022Z,96.80
2019-03-04T12:09:41.655Z,96.80
2019-03-04T12:12:09.138Z,96.10
2019-03-04T12:14:36.713Z,96.20
2019-03-04T12:17:04.238Z,96.20
2019-03-04T12:19:31.700Z,95.30
2019-03-04T12:22:00.260Z,92.30
2019-03-04T12:24:27.750Z,92.50
2019-03-04T12:26:55.210Z,92.30
2019-03-04T12:29:22.783Z,90.10
2019-03-04T12:32:01.808Z,91.30
2019-03-04T12:34:29.505Z,90.00
2019-03-04T12:36:56.986Z,90.20
2019-03-04T12:39:24.478Z,90.50
2019-03-04T12:41:52.034Z,85.40
2019-03-04T12:44:19.518Z,81.80
2019-03-04T12:46:47.016Z,80.90
2019-03-04T12:49:14.549Z,80.30
2019-03-04T12:51:42.048Z,81.80
2019-03-04T12:54:09.556Z,81.80
2019-03-04T12:56:37.038Z,82.70
2019-03-04T12:59:04.521Z,83.10
2019-03-04T13:01:31.995Z,85.00
2019-03-04T13:03:59.483Z,84.70
2019-03-04T13:06:26.943Z,83.80
2019-03-04T13:08:54.496Z,83.70
2019-03-04T13:11:22.011Z,81.20
2019-03-04T13:13:49.617Z,81.50
2019-03-04T13:16:17.110Z,80.60
2019-03-04T13:18:44.607Z,79.70
2019-03-04T13:21:12.111Z,81.10
2019-03-04T13:23:39.613Z,80.70
2019-03-04T13:26:07.120Z,81.50
2019-03-04T13:28:34.738Z,80.00
2019-03-04T13:31:02.290Z,80.20
2019-03-04T13:33:29.793Z,80.70
2019-03-04T13:35:57.373Z,81.50
2019-03-04T13:38:24.852Z,80.60
2019-03-04T13:40:52.338Z,81.70
2019-03-04T13:43:19.860Z,83.40
2019-03-04T13:45:47.421Z,85.70
2019-03-04T13:48:15.011Z,84.90
2019-03-04T13:50:42.600Z,90.00
2019-03-04T13:53:10.163Z,90.80
2019-03-04T13:55:37.706Z,91.30
2019-03-04T13:58:05.302Z,91.90
2019-03-04T14:00:33.022Z,92.30
2019-03-04T14:03:00.559Z,93.20
2019-03-04T14:05:28.083Z,94.20
2019-03-04T14:07:55.568Z,94.20
2019-03-04T14:10:23.147Z,94.00
2019-03-04T14:12:50.618Z,94.60
2019-03-04T14:15:21.337Z,94.30
2019-03-04T14:17:48.921Z,94.50
2019-03-04T14:20:16.466Z,93.60
2019-03-04T14:22:43.998Z,93.40
2019-03-04T14:25:11.570Z,93.90
2019-03-04T14:27:39.059Z,93.50
2019-03-04T14:30:09.685Z,93.80
2019-03-04T14:32:37.154Z,93.70
2019-03-04T14:35:04.742Z,93.50
2019-03-04T14:37:32.209Z,93.70
2019-03-04T14:39:59.784Z,94.20
2019-03-04T14:42:27.265Z,94.20
2019-03-04T14:44:54.906Z,94.10
2019-03-04T14:47:22.396Z,94.90
2019-03-04T14:49:49.880Z,94.50
2019-03-04T14:52:17.368Z,94.90
2019-03-04T14:54:44.870Z,95.70
2019-03-04T14:57:13.415Z,95.70
2019-03-04T14:59:41.128Z,95.50
2019-03-04T15:02:08.603Z,96.20
2019-03-04T15:04:36.073Z,95.70
2019-03-04T15:07:03.625Z,95.70
2019-03-04T15:09:31.121Z,95.70
2019-03-04T15:11:58.593Z,95.90
2019-03-04T15:14:26.109Z,96.10
2019-03-04T15:17:02.730Z,96.10
2019-03-04T15:19:22.856Z,96.20
2019-03-04T15:21:50.362Z,96.30
2019-03-04T15:24:17.844Z,96.40
2019-03-04T15:26:47.107Z,96.80
2019-03-04T15:29:14.696Z,96.40
2019-03-04T15:31:42.156Z,96.00
2019-03-04T15:34:09.679Z,96.40
2019-03-04T15:36:37.129Z,95.90
2019-03-04T15:39:11.361Z,96.40
2019-03-04T15:41:40.459Z,96.40
2019-03-04T15:55:49.761Z,97.70
2019-03-04T16:00:29.589Z,97.50
2019-03-04T16:01:22.131Z,98.20
2019-03-04T16:03:49.605Z,98.40
2019-03-04T16:06:17.130Z,98.60
2019-03-04T16:08:44.632Z,98.50
2019-03-04T16:11:12.101Z,98.70
2019-03-04T16:13:39.668Z,98.90
2019-03-04T16:16:07.122Z,98.50
2019-03-04T16:18:34.655Z,98.40
2019-03-04T16:21:02.149Z,98.50
2019-03-04T16:23:29.650Z,98.60
2019-03-04T16:25:57.158Z,98.30
2019-03-04T16:28:26.646Z,98.50
2019-03-04T16:30:54.118Z,98.20
2019-03-04T16:33:21.969Z,98.50
2019-03-04T16:35:49.533Z,98.40
2019-03-04T16:38:17.017Z,98.70
2019-03-04T16:40:44.714Z,98.50
2019-03-04T16:43:12.234Z,98.40
2019-03-04T16:45:39.874Z,98.60
2019-03-04T16:48:07.474Z,98.30
2019-03-04T16:50:35.113Z,98.20
2019-03-04T16:53:02.637Z,98.30
2019-03-04T16:55:30.120Z,98.10
2019-03-04T16:57:57.621Z,98.50
2019-03-04T17:00:25.180Z,98.20
2019-03-04T17:02:53.022Z,98.30
2019-03-04T17:05:20.632Z,98.40
2019-03-04T17:07:48.092Z,98.30
2019-03-04T17:10:16.716Z,98.50
2019-03-04T17:12:44.213Z,98.30
2019-03-04T17:15:14.138Z,98.30
2019-03-04T17:17:41.590Z,98.30
2019-03-04T17:20:10.207Z,98.60
2019-03-04T17:22:37.693Z,98.70
2019-03-04T17:25:05.638Z,98.60
2019-03-04T17:27:33.109Z,98.80
2019-03-04T17:30:00.912Z,98.80
2019-03-04T17:32:28.427Z,99.20
2019-03-04T17:34:55.909Z,99.60
2019-03-04T17:37:23.400Z,99.50
2019-03-04T17:39:52.285Z,99.90
2019-03-04T17:42:39.630Z,99.90
2019-03-04T17:48:55.331Z,99.90
2019-03-04T17:51:22.917Z,99.50
2019-03-04T17:59:07.995Z,97.60
2019-03-04T18:01:35.472Z,96.90
2019-03-04T18:04:02.949Z,96.30
2019-03-04T18:06:30.478Z,96.40
2019-03-04T18:08:58.265Z,96.00
2019-03-04T18:11:25.807Z,96.70
2019-03-04T18:13:53.505Z,96.60
2019-03-04T18:16:21.015Z,99.00
2019-03-04T18:18:48.515Z,99.90
2019-03-04T18:21:16.026Z,99.90
2019-03-04T18:23:43.753Z,99.90
2019-03-04T18:26:24.019Z,99.90
2019-03-04T18:29:02.291Z,99.90
2019-03-04T18:32:02.581Z,99.90
2019-03-04T18:34:50.470Z,99.90
2019-03-04T18:38:09.360Z,99.90
2019-03-04T18:40:49.984Z,99.90
2019-03-04T18:43:54.004Z,99.90
2019-03-04T18:46:58.010Z,99.90
2019-03-04T18:49:25.542Z,99.90
2019-03-04T18:51:53.060Z,99.90
2019-03-04T19:05:17.135Z,99.90
2019-03-04T19:08:27.851Z,99.90
2019-03-04T19:10:55.368Z,99.90
2019-03-04T19:13:22.831Z,99.90
2019-03-04T19:15:50.383Z,99.90
2019-03-04T19:18:17.878Z,99.90
2019-03-04T19:20:45.479Z,99.90
2019-03-04T19:23:12.962Z,99.90
2019-03-04T19:25:40.508Z,99.90
2019-03-04T19:28:07.977Z,99.90
2019-03-04T19:30:35.647Z,99.90
2019-03-04T19:33:03.246Z,99.90
2019-03-04T19:35:30.783Z,99.90
2019-03-04T19:37:58.325Z,99.90
2019-03-04T19:40:25.798Z,99.90
2019-03-04T19:42:53.360Z,99.90
2019-03-04T19:45:20.917Z,99.90
2019-03-04T19:47:48.467Z,99.90
2019-03-04T19:50:15.952Z,99.90
2019-03-04T19:52:43.521Z,99.90
2019-03-04T19:55:12.625Z,99.90
2019-03-04T19:57:40.416Z,99.90
2019-03-04T20:00:10.367Z,99.90
2019-03-04T20:02:37.951Z,99.90
2019-03-04T20:05:05.608Z,99.90
2019-03-04T20:07:33.277Z,99.90
2019-03-04T20:10:00.924Z,99.90
2019-03-04T20:12:28.387Z,99.90
2019-03-04T20:14:55.912Z,99.90
2019-03-04T20:17:23.409Z,99.90
2019-03-04T20:19:51.027Z,99.90
2019-03-04T20:22:18.527Z,99.90
2019-03-04T20:24:46.136Z,99.90
2019-03-04T20:27:13.711Z,99.90
2019-03-04T20:29:41.183Z,99.90
2019-03-04T20:32:08.706Z,99.90
2019-03-04T20:34:36.233Z,99.90
2019-03-04T20:37:03.714Z,99.90
2019-03-04T20:39:31.435Z,99.90
2019-03-04T20:42:00.688Z,99.90
2019-03-04T20:44:28.210Z,99.90
2019-03-04T20:46:55.744Z,99.90
2019-03-04T20:49:23.287Z,99.90
2019-03-04T20:51:50.794Z,99.90
2019-03-04T20:54:18.400Z,99.90
2019-03-04T20:56:45.900Z,99.90
2019-03-04T20:59:13.416Z,99.90
2019-03-04T21:01:40.946Z,99.90
2019-03-04T21:04:08.608Z,99.90
2019-03-04T21:06:36.173Z,99.90
2019-03-04T21:09:05.462Z,99.90
2019-03-04T21:11:33.061Z,99.90
2019-03-04T21:14:00.584Z,99.90
2019-03-04T21:16:28.068Z,99.90
2019-03-04T21:18:55.559Z,99.90
2019-03-04T21:21:23.089Z,99.90
2019-03-04T21:23:50.703Z,99.90
2019-03-04T21:26:24.463Z,99.90
2019-03-04T21:29:40.219Z,99.90
2019-03-04T21:33:04.722Z,99.90
2019-03-04T21:36:18.094Z,99.90
2019-03-04T21:38:45.716Z,99.90
2019-03-04T21:41:41.506Z,99.90
2019-03-04T21:44:29.779Z,99.90
2019-03-04T21:47:05.629Z,99.90
2019-03-04T21:49:37.132Z,99.90
2019-03-04T21:52:36.810Z,99.90
2019-03-04T21:55:08.562Z,99.90
2019-03-04T21:57:43.009Z,99.90
2019-03-04T22:00:15.808Z,99.90
2019-03-04T22:02:53.063Z,99.90
2019-03-04T22:05:20.550Z,99.90
2019-03-04T22:07:48.616Z,99.90
2019-03-04T22:10:16.457Z,99.90
2019-03-04T22:12:44.650Z,99.90
2019-03-04T22:15:12.378Z,99.90
2019-03-04T22:17:39.845Z,99.90
2019-03-04T22:20:08.365Z,99.90
2019-03-04T22:22:35.909Z,99.90
2019-03-04T22:25:03.697Z,99.90
2019-03-04T22:27:31.210Z,99.90
2019-03-04T22:29:58.701Z,99.90
2019-03-04T22:32:26.179Z,99.90
2019-03-04T22:34:53.710Z,99.90
2019-03-04T22:37:24.234Z,99.90
2019-03-04T22:39:51.782Z,99.90
2019-03-04T22:42:19.247Z,99.90
2019-03-04T22:44:47.003Z,99.90
2019-03-04T22:47:14.481Z,99.90
2019-03-04T22:49:42.026Z,99.90
2019-03-04T22:52:09.801Z,99.90
2019-03-04T22:54:37.269Z,99.90
2019-03-04T22:57:04.859Z,99.90
2019-03-04T22:59:32.359Z,99.90
2019-03-04T23:02:01.911Z,99.90
2019-03-04T23:05:05.222Z,99.90
2019-03-04T23:07:38.310Z,99.90
2019-03-04T23:10:35.899Z,99.90
2019-03-04T23:13:33.553Z,99.90
2019-03-04T23:16:02.115Z,99.90
2019-03-04T23:18:29.567Z,99.90
2019-03-04T23:20:57.064Z,99.90
2019-03-04T23:23:24.720Z,99.90
2019-03-04T23:25:52.224Z,99.90
2019-03-04T23:28:19.749Z,99.90
2019-03-04T23:30:47.201Z,99.90
2019-03-04T23:33:14.711Z,99.90
2019-03-04T23:35:42.193Z,99.90
2019-03-04T23:38:10.064Z,99.90
2019-03-04T23:40:37.545Z,99.90
2019-03-04T23:43:05.017Z,99.90
2019-03-04T23:45:32.530Z,99.90
2019-03-04T23:48:00.039Z,99.90
2019-03-04T23:50:27.565Z,99.90
2019-03-04T23:52:55.121Z,99.90
2019-03-04T23:55:22.590Z,99.90
2019-03-04T23:57:50.224Z,99.90
